sensor_id;sensor_type;location;lat;lon;timestamp;P1;durP1;ratioP1;P2;durP2;ratioP2
24335;SDS011;33098;52.400;16.880;2022-09-09T00:04:32;11.70;;;10.40;;
24335;SDS011;33098;52.400;16.880;2022-09-09T00:07:21;11.20;;;10.00;;
24335;SDS011;33098;52.400;16.880;2022-09-09T00:15:41;11.20;;;10.00;;
24335;SDS011;33098;52.400;16.880;2022-09-09T00:21:14;10.60;;;9.50;;
24335;SDS011;33098;52.400;16.880;2022-09-09T00:23:49;11.50;;;10.30;;
24335;SDS011;33098;52.400;16.880;2022-09-09T00:26:32;11.90;;;9.70;;
24335;SDS011;33098;52.400;16.880;2022-09-09T00:29:18;11.40;;;9.90;;
24335;SDS011;33098;52.400;16.880;2022-09-09T00:31:57;12.30;;;9.50;;
24335;SDS011;33098;52.400;16.880;2022-09-09T00:34:42;10.10;;;9.10;;
24335;SDS011;33098;52.400;16.880;2022-09-09T00:37:15;10.00;;;9.00;;
24335;SDS011;33098;52.400;16.880;2022-09-09T00:39:44;10.70;;;8.60;;
24335;SDS011;33098;52.400;16.880;2022-09-09T00:44:56;10.60;;;8.90;;
24335;SDS011;33098;52.400;16.880;2022-09-09T00:53:02;9.70;;;8.80;;
24335;SDS011;33098;52.400;16.880;2022-09-09T00:55:34;9.50;;;8.40;;
24335;SDS011;33098;52.400;16.880;2022-09-09T00:58:08;10.30;;;8.60;;
24335;SDS011;33098;52.400;16.880;2022-09-09T01:00:40;11.80;;;8.10;;
24335;SDS011;33098;52.400;16.880;2022-09-09T01:03:18;9.50;;;7.70;;
24335;SDS011;33098;52.400;16.880;2022-09-09T01:11:32;7.90;;;7.20;;
24335;SDS011;33098;52.400;16.880;2022-09-09T01:14:20;9.20;;;7.40;;
24335;SDS011;33098;52.400;16.880;2022-09-09T01:16:58;8.10;;;7.30;;
24335;SDS011;33098;52.400;16.880;2022-09-09T01:28:16;8.80;;;6.80;;
24335;SDS011;33098;52.400;16.880;2022-09-09T01:30:49;7.20;;;6.40;;
24335;SDS011;33098;52.400;16.880;2022-09-09T01:33:19;7.20;;;6.50;;
24335;SDS011;33098;52.400;16.880;2022-09-09T01:35:57;7.40;;;6.70;;
24335;SDS011;33098;52.400;16.880;2022-09-09T01:38:33;7.60;;;6.20;;
24335;SDS011;33098;52.400;16.880;2022-09-09T01:41:02;9.00;;;6.70;;
24335;SDS011;33098;52.400;16.880;2022-09-09T01:43:40;7.50;;;6.70;;
24335;SDS011;33098;52.400;16.880;2022-09-09T01:46:06;7.90;;;6.20;;
24335;SDS011;33098;52.400;16.880;2022-09-09T01:48:35;7.00;;;6.40;;
24335;SDS011;33098;52.400;16.880;2022-09-09T01:51:04;13.00;;;7.20;;
24335;SDS011;33098;52.400;16.880;2022-09-09T01:53:31;7.80;;;6.80;;
24335;SDS011;33098;52.400;16.880;2022-09-09T01:59:05;7.50;;;6.70;;
24335;SDS011;33098;52.400;16.880;2022-09-09T02:01:55;14.30;;;6.70;;
24335;SDS011;33098;52.400;16.880;2022-09-09T02:07:14;7.20;;;6.50;;
24335;SDS011;33098;52.400;16.880;2022-09-09T02:10:09;9.10;;;6.60;;
24335;SDS011;33098;52.400;16.880;2022-09-09T02:12:40;7.80;;;7.00;;
24335;SDS011;33098;52.400;16.880;2022-09-09T02:15:13;7.10;;;6.40;;
24335;SDS011;33098;52.400;16.880;2022-09-09T02:17:54;7.50;;;6.40;;
24335;SDS011;33098;52.400;16.880;2022-09-09T02:20:24;7.90;;;6.70;;
24335;SDS011;33098;52.400;16.880;2022-09-09T02:22:56;8.10;;;7.30;;
24335;SDS011;33098;52.400;16.880;2022-09-09T02:25:24;7.40;;;6.70;;
24335;SDS011;33098;52.400;16.880;2022-09-09T02:27:57;7.80;;;6.50;;
24335;SDS011;33098;52.400;16.880;2022-09-09T02:30:27;14.30;;;6.40;;
24335;SDS011;33098;52.400;16.880;2022-09-09T02:33:00;7.30;;;6.10;;
24335;SDS011;33098;52.400;16.880;2022-09-09T02:35:41;8.00;;;6.30;;
24335;SDS011;33098;52.400;16.880;2022-09-09T02:38:11;8.20;;;6.50;;
24335;SDS011;33098;52.400;16.880;2022-09-09T02:40:44;6.70;;;6.00;;
24335;SDS011;33098;52.400;16.880;2022-09-09T02:43:13;7.30;;;6.50;;
24335;SDS011;33098;52.400;16.880;2022-09-09T02:45:49;6.80;;;6.20;;
24335;SDS011;33098;52.400;16.880;2022-09-09T02:48:46;7.50;;;6.70;;
24335;SDS011;33098;52.400;16.880;2022-09-09T02:57:01;8.70;;;6.40;;
24335;SDS011;33098;52.400;16.880;2022-09-09T02:59:38;7.30;;;6.50;;
24335;SDS011;33098;52.400;16.880;2022-09-09T03:02:06;7.20;;;6.00;;
24335;SDS011;33098;52.400;16.880;2022-09-09T03:04:33;7.10;;;6.30;;
24335;SDS011;33098;52.400;16.880;2022-09-09T03:06:59;7.00;;;6.10;;
24335;SDS011;33098;52.400;16.880;2022-09-09T03:09:26;9.50;;;6.50;;
24335;SDS011;33098;52.400;16.880;2022-09-09T03:11:53;7.10;;;6.00;;
24335;SDS011;33098;52.400;16.880;2022-09-09T03:14:22;7.20;;;6.30;;
24335;SDS011;33098;52.400;16.880;2022-09-09T03:16:51;7.10;;;6.30;;
24335;SDS011;33098;52.400;16.880;2022-09-09T03:19:19;6.80;;;6.10;;
24335;SDS011;33098;52.400;16.880;2022-09-09T03:21:47;8.30;;;6.10;;
24335;SDS011;33098;52.400;16.880;2022-09-09T03:24:14;6.80;;;6.10;;
24335;SDS011;33098;52.400;16.880;2022-09-09T03:26:41;6.40;;;5.80;;
24335;SDS011;33098;52.400;16.880;2022-09-09T03:29:12;9.50;;;6.30;;
24335;SDS011;33098;52.400;16.880;2022-09-09T03:31:40;8.50;;;6.70;;
24335;SDS011;33098;52.400;16.880;2022-09-09T03:34:07;8.30;;;6.40;;
24335;SDS011;33098;52.400;16.880;2022-09-09T03:36:34;7.00;;;6.30;;
24335;SDS011;33098;52.400;16.880;2022-09-09T03:39:01;7.20;;;6.50;;
24335;SDS011;33098;52.400;16.880;2022-09-09T03:41:30;9.80;;;6.70;;
24335;SDS011;33098;52.400;16.880;2022-09-09T03:43:58;8.20;;;6.50;;
24335;SDS011;33098;52.400;16.880;2022-09-09T03:46:26;7.60;;;6.90;;
24335;SDS011;33098;52.400;16.880;2022-09-09T03:48:52;7.80;;;6.90;;
24335;SDS011;33098;52.400;16.880;2022-09-09T03:51:19;7.60;;;6.40;;
24335;SDS011;33098;52.400;16.880;2022-09-09T03:53:48;7.90;;;6.90;;
24335;SDS011;33098;52.400;16.880;2022-09-09T03:56:15;7.90;;;7.00;;
24335;SDS011;33098;52.400;16.880;2022-09-09T03:58:43;7.60;;;6.80;;
24335;SDS011;33098;52.400;16.880;2022-09-09T04:01:13;7.40;;;6.60;;
24335;SDS011;33098;52.400;16.880;2022-09-09T04:03:41;7.70;;;6.90;;
24335;SDS011;33098;52.400;16.880;2022-09-09T04:06:09;7.30;;;6.60;;
24335;SDS011;33098;52.400;16.880;2022-09-09T04:08:39;7.40;;;6.60;;
24335;SDS011;33098;52.400;16.880;2022-09-09T04:11:06;8.20;;;6.60;;
24335;SDS011;33098;52.400;16.880;2022-09-09T04:13:34;10.50;;;7.20;;
24335;SDS011;33098;52.400;16.880;2022-09-09T04:16:04;8.00;;;7.20;;
24335;SDS011;33098;52.400;16.880;2022-09-09T04:18:31;8.50;;;7.50;;
24335;SDS011;33098;52.400;16.880;2022-09-09T04:20:58;8.90;;;7.10;;
24335;SDS011;33098;52.400;16.880;2022-09-09T04:23:26;8.20;;;7.00;;
24335;SDS011;33098;52.400;16.880;2022-09-09T04:25:56;7.40;;;6.70;;
24335;SDS011;33098;52.400;16.880;2022-09-09T04:28:25;10.20;;;7.60;;
24335;SDS011;33098;52.400;16.880;2022-09-09T04:30:53;8.20;;;7.40;;
24335;SDS011;33098;52.400;16.880;2022-09-09T04:33:20;10.60;;;8.60;;
24335;SDS011;33098;52.400;16.880;2022-09-09T04:35:48;9.60;;;8.60;;
24335;SDS011;33098;52.400;16.880;2022-09-09T04:38:17;11.70;;;9.00;;
24335;SDS011;33098;52.400;16.880;2022-09-09T04:40:47;11.10;;;9.80;;
24335;SDS011;33098;52.400;16.880;2022-09-09T04:43:15;12.50;;;10.70;;
24335;SDS011;33098;52.400;16.880;2022-09-09T04:45:42;12.00;;;10.40;;
24335;SDS011;33098;52.400;16.880;2022-09-09T04:48:09;11.60;;;10.40;;
24335;SDS011;33098;52.400;16.880;2022-09-09T04:50:36;13.30;;;11.10;;
24335;SDS011;33098;52.400;16.880;2022-09-09T04:53:03;13.40;;;11.10;;
24335;SDS011;33098;52.400;16.880;2022-09-09T04:55:31;12.30;;;10.80;;
24335;SDS011;33098;52.400;16.880;2022-09-09T04:58:05;12.30;;;10.80;;
24335;SDS011;33098;52.400;16.880;2022-09-09T05:00:36;11.20;;;10.00;;
24335;SDS011;33098;52.400;16.880;2022-09-09T05:03:05;13.10;;;11.10;;
24335;SDS011;33098;52.400;16.880;2022-09-09T05:05:33;12.60;;;10.30;;
24335;SDS011;33098;52.400;16.880;2022-09-09T05:08:04;12.30;;;10.90;;
24335;SDS011;33098;52.400;16.880;2022-09-09T05:10:32;12.90;;;10.80;;
24335;SDS011;33098;52.400;16.880;2022-09-09T05:12:59;11.80;;;10.50;;
24335;SDS011;33098;52.400;16.880;2022-09-09T05:15:28;12.10;;;10.70;;
24335;SDS011;33098;52.400;16.880;2022-09-09T05:18:01;11.80;;;10.60;;
24335;SDS011;33098;52.400;16.880;2022-09-09T05:20:29;15.00;;;10.50;;
24335;SDS011;33098;52.400;16.880;2022-09-09T05:22:56;11.90;;;10.00;;
24335;SDS011;33098;52.400;16.880;2022-09-09T05:25:23;12.90;;;9.90;;
24335;SDS011;33098;52.400;16.880;2022-09-09T05:27:52;11.10;;;10.00;;
24335;SDS011;33098;52.400;16.880;2022-09-09T05:30:20;12.80;;;10.30;;
24335;SDS011;33098;52.400;16.880;2022-09-09T05:32:48;10.20;;;9.20;;
24335;SDS011;33098;52.400;16.880;2022-09-09T05:35:15;10.40;;;9.20;;
24335;SDS011;33098;52.400;16.880;2022-09-09T05:37:42;10.40;;;9.00;;
24335;SDS011;33098;52.400;16.880;2022-09-09T05:40:10;10.80;;;9.60;;
24335;SDS011;33098;52.400;16.880;2022-09-09T05:42:37;10.80;;;8.90;;
24335;SDS011;33098;52.400;16.880;2022-09-09T05:45:04;11.00;;;9.00;;
24335;SDS011;33098;52.400;16.880;2022-09-09T05:47:33;10.90;;;9.80;;
24335;SDS011;33098;52.400;16.880;2022-09-09T05:50:01;10.00;;;9.00;;
24335;SDS011;33098;52.400;16.880;2022-09-09T05:52:28;10.80;;;9.70;;
24335;SDS011;33098;52.400;16.880;2022-09-09T05:54:55;11.20;;;10.20;;
24335;SDS011;33098;52.400;16.880;2022-09-09T05:57:23;12.60;;;10.60;;
24335;SDS011;33098;52.400;16.880;2022-09-09T05:59:50;14.60;;;11.50;;
24335;SDS011;33098;52.400;16.880;2022-09-09T06:02:16;12.60;;;11.30;;
24335;SDS011;33098;52.400;16.880;2022-09-09T06:04:43;14.80;;;12.00;;
24335;SDS011;33098;52.400;16.880;2022-09-09T06:07:11;13.30;;;11.80;;
24335;SDS011;33098;52.400;16.880;2022-09-09T06:09:37;14.10;;;12.60;;
24335;SDS011;33098;52.400;16.880;2022-09-09T06:12:04;14.90;;;13.30;;
24335;SDS011;33098;52.400;16.880;2022-09-09T06:14:33;18.80;;;13.50;;
24335;SDS011;33098;52.400;16.880;2022-09-09T06:16:59;16.50;;;13.50;;
24335;SDS011;33098;52.400;16.880;2022-09-09T06:19:29;17.30;;;14.10;;
24335;SDS011;33098;52.400;16.880;2022-09-09T06:21:57;18.80;;;15.30;;
24335;SDS011;33098;52.400;16.880;2022-09-09T06:24:25;17.90;;;15.00;;
24335;SDS011;33098;52.400;16.880;2022-09-09T06:26:52;18.70;;;15.60;;
24335;SDS011;33098;52.400;16.880;2022-09-09T06:29:21;21.40;;;16.50;;
24335;SDS011;33098;52.400;16.880;2022-09-09T06:31:48;18.50;;;16.20;;
24335;SDS011;33098;52.400;16.880;2022-09-09T06:34:18;19.00;;;15.80;;
24335;SDS011;33098;52.400;16.880;2022-09-09T06:36:47;19.70;;;15.90;;
24335;SDS011;33098;52.400;16.880;2022-09-09T06:39:14;22.60;;;17.80;;
24335;SDS011;33098;52.400;16.880;2022-09-09T06:41:41;20.50;;;16.30;;
24335;SDS011;33098;52.400;16.880;2022-09-09T06:44:14;21.10;;;16.40;;
24335;SDS011;33098;52.400;16.880;2022-09-09T06:46:41;20.90;;;16.70;;
24335;SDS011;33098;52.400;16.880;2022-09-09T06:49:09;21.00;;;16.60;;
24335;SDS011;33098;52.400;16.880;2022-09-09T06:51:36;18.70;;;15.80;;
24335;SDS011;33098;52.400;16.880;2022-09-09T06:54:09;20.50;;;16.00;;
24335;SDS011;33098;52.400;16.880;2022-09-09T06:56:37;20.90;;;16.20;;
24335;SDS011;33098;52.400;16.880;2022-09-09T06:59:12;20.30;;;15.30;;
24335;SDS011;33098;52.400;16.880;2022-09-09T07:01:41;19.20;;;15.60;;
24335;SDS011;33098;52.400;16.880;2022-09-09T07:04:13;17.20;;;14.90;;
24335;SDS011;33098;52.400;16.880;2022-09-09T07:06:42;18.60;;;15.30;;
24335;SDS011;33098;52.400;16.880;2022-09-09T07:09:13;15.10;;;13.50;;
24335;SDS011;33098;52.400;16.880;2022-09-09T07:11:46;18.40;;;15.00;;
24335;SDS011;33098;52.400;16.880;2022-09-09T07:14:14;17.00;;;14.40;;
24335;SDS011;33098;52.400;16.880;2022-09-09T07:16:44;16.20;;;14.50;;
24335;SDS011;33098;52.400;16.880;2022-09-09T07:19:12;16.80;;;15.00;;
24335;SDS011;33098;52.400;16.880;2022-09-09T07:21:41;17.90;;;13.60;;
24335;SDS011;33098;52.400;16.880;2022-09-09T07:24:09;15.20;;;13.60;;
24335;SDS011;33098;52.400;16.880;2022-09-09T07:26:37;15.80;;;13.40;;
24335;SDS011;33098;52.400;16.880;2022-09-09T07:29:05;11.80;;;10.60;;
24335;SDS011;33098;52.400;16.880;2022-09-09T07:31:33;13.10;;;11.70;;
24335;SDS011;33098;52.400;16.880;2022-09-09T07:36:40;13.60;;;11.20;;
24335;SDS011;33098;52.400;16.880;2022-09-09T07:39:09;12.90;;;11.30;;
24335;SDS011;33098;52.400;16.880;2022-09-09T07:41:39;11.40;;;10.20;;
24335;SDS011;33098;52.400;16.880;2022-09-09T07:44:15;11.60;;;10.10;;
24335;SDS011;33098;52.400;16.880;2022-09-09T07:46:45;11.70;;;10.50;;
24335;SDS011;33098;52.400;16.880;2022-09-09T07:49:14;12.40;;;11.10;;
24335;SDS011;33098;52.400;16.880;2022-09-09T07:51:42;13.80;;;10.40;;
24335;SDS011;33098;52.400;16.880;2022-09-09T07:54:13;14.80;;;10.70;;
24335;SDS011;33098;52.400;16.880;2022-09-09T07:56:42;13.10;;;10.10;;
24335;SDS011;33098;52.400;16.880;2022-09-09T07:59:10;12.50;;;10.00;;
24335;SDS011;33098;52.400;16.880;2022-09-09T08:01:44;10.40;;;9.20;;
24335;SDS011;33098;52.400;16.880;2022-09-09T08:04:15;8.80;;;7.90;;
24335;SDS011;33098;52.400;16.880;2022-09-09T08:06:45;10.20;;;8.90;;
24335;SDS011;33098;52.400;16.880;2022-09-09T08:09:17;9.60;;;8.60;;
24335;SDS011;33098;52.400;16.880;2022-09-09T08:11:44;7.90;;;7.10;;
24335;SDS011;33098;52.400;16.880;2022-09-09T08:14:11;7.90;;;7.10;;
24335;SDS011;33098;52.400;16.880;2022-09-09T08:16:48;10.80;;;7.00;;
24335;SDS011;33098;52.400;16.880;2022-09-09T08:19:18;9.00;;;6.90;;
24335;SDS011;33098;52.400;16.880;2022-09-09T08:21:45;9.30;;;6.50;;
24335;SDS011;33098;52.400;16.880;2022-09-09T08:24:12;7.20;;;6.20;;
24335;SDS011;33098;52.400;16.880;2022-09-09T08:26:44;7.90;;;6.10;;
24335;SDS011;33098;52.400;16.880;2022-09-09T08:29:13;5.80;;;5.30;;
24335;SDS011;33098;52.400;16.880;2022-09-09T08:31:41;9.00;;;5.10;;
24335;SDS011;33098;52.400;16.880;2022-09-09T08:34:14;5.70;;;5.10;;
24335;SDS011;33098;52.400;16.880;2022-09-09T08:36:42;5.80;;;5.20;;
24335;SDS011;33098;52.400;16.880;2022-09-09T08:39:11;8.40;;;4.40;;
24335;SDS011;33098;52.400;16.880;2022-09-09T08:41:41;6.30;;;5.00;;
24335;SDS011;33098;52.400;16.880;2022-09-09T08:49:43;6.00;;;4.10;;
24335;SDS011;33098;52.400;16.880;2022-09-09T08:52:18;4.50;;;3.90;;
24335;SDS011;33098;52.400;16.880;2022-09-09T08:54:49;4.90;;;4.00;;
24335;SDS011;33098;52.400;16.880;2022-09-09T08:57:20;3.80;;;3.40;;
24335;SDS011;33098;52.400;16.880;2022-09-09T08:59:52;4.80;;;4.10;;
24335;SDS011;33098;52.400;16.880;2022-09-09T09:02:26;4.10;;;3.70;;
24335;SDS011;33098;52.400;16.880;2022-09-09T09:10:47;3.80;;;3.50;;
24335;SDS011;33098;52.400;16.880;2022-09-09T09:13:20;5.80;;;4.00;;
24335;SDS011;33098;52.400;16.880;2022-09-09T09:15:58;4.00;;;3.30;;
24335;SDS011;33098;52.400;16.880;2022-09-09T09:18:31;3.10;;;2.80;;
24335;SDS011;33098;52.400;16.880;2022-09-09T09:23:57;4.90;;;3.10;;
24335;SDS011;33098;52.400;16.880;2022-09-09T09:26:29;3.30;;;2.40;;
24335;SDS011;33098;52.400;16.880;2022-09-09T09:28:59;4.20;;;2.80;;
24335;SDS011;33098;52.400;16.880;2022-09-09T09:31:34;2.80;;;2.40;;
24335;SDS011;33098;52.400;16.880;2022-09-09T09:34:01;3.40;;;2.30;;
24335;SDS011;33098;52.400;16.880;2022-09-09T09:36:39;3.40;;;2.40;;
24335;SDS011;33098;52.400;16.880;2022-09-09T09:39:10;4.40;;;2.60;;
24335;SDS011;33098;52.400;16.880;2022-09-09T09:41:38;4.10;;;2.70;;
24335;SDS011;33098;52.400;16.880;2022-09-09T09:47:08;2.80;;;2.50;;
24335;SDS011;33098;52.400;16.880;2022-09-09T09:49:39;4.00;;;2.30;;
24335;SDS011;33098;52.400;16.880;2022-09-09T09:52:21;3.00;;;2.70;;
24335;SDS011;33098;52.400;16.880;2022-09-09T09:54:50;2.90;;;2.60;;
24335;SDS011;33098;52.400;16.880;2022-09-09T09:57:18;3.20;;;2.30;;
24335;SDS011;33098;52.400;16.880;2022-09-09T10:02:44;3.20;;;2.90;;
24335;SDS011;33098;52.400;16.880;2022-09-09T10:05:18;4.40;;;3.30;;
24335;SDS011;33098;52.400;16.880;2022-09-09T10:08:08;3.60;;;2.70;;
24335;SDS011;33098;52.400;16.880;2022-09-09T10:10:42;3.20;;;2.90;;
24335;SDS011;33098;52.400;16.880;2022-09-09T10:13:20;7.00;;;3.40;;
24335;SDS011;33098;52.400;16.880;2022-09-09T10:16:08;3.50;;;3.10;;
24335;SDS011;33098;52.400;16.880;2022-09-09T10:21:46;3.60;;;3.00;;
24335;SDS011;33098;52.400;16.880;2022-09-09T10:27:20;5.10;;;4.10;;
24335;SDS011;33098;52.400;16.880;2022-09-09T10:29:56;4.00;;;3.50;;
24335;SDS011;33098;52.400;16.880;2022-09-09T10:35:31;5.00;;;3.50;;
24335;SDS011;33098;52.400;16.880;2022-09-09T10:43:32;5.00;;;4.30;;
24335;SDS011;33098;52.400;16.880;2022-09-09T10:59:59;3.20;;;2.90;;
24335;SDS011;33098;52.400;16.880;2022-09-09T11:02:31;4.00;;;2.80;;
24335;SDS011;33098;52.400;16.880;2022-09-09T11:08:04;4.60;;;2.60;;
24335;SDS011;33098;52.400;16.880;2022-09-09T11:10:45;3.70;;;2.50;;
24335;SDS011;33098;52.400;16.880;2022-09-09T11:15:53;4.40;;;2.60;;
24335;SDS011;33098;52.400;16.880;2022-09-09T11:18:35;5.10;;;3.00;;
24335;SDS011;33098;52.400;16.880;2022-09-09T11:21:07;4.30;;;2.50;;
24335;SDS011;33098;52.400;16.880;2022-09-09T11:23:45;3.80;;;2.40;;
24335;SDS011;33098;52.400;16.880;2022-09-09T11:26:22;6.60;;;2.90;;
24335;SDS011;33098;52.400;16.880;2022-09-09T11:29:04;3.70;;;2.40;;
24335;SDS011;33098;52.400;16.880;2022-09-09T11:32:06;3.60;;;1.80;;
24335;SDS011;33098;52.400;16.880;2022-09-09T11:37:39;3.10;;;1.70;;
24335;SDS011;33098;52.400;16.880;2022-09-09T11:40:31;3.20;;;1.90;;
24335;SDS011;33098;52.400;16.880;2022-09-09T11:43:12;2.40;;;1.30;;
24335;SDS011;33098;52.400;16.880;2022-09-09T11:45:53;2.80;;;1.40;;
24335;SDS011;33098;52.400;16.880;2022-09-09T11:51:02;5.10;;;1.50;;
24335;SDS011;33098;52.400;16.880;2022-09-09T11:53:31;3.30;;;1.50;;
24335;SDS011;33098;52.400;16.880;2022-09-09T11:56:02;2.80;;;1.40;;
24335;SDS011;33098;52.400;16.880;2022-09-09T11:58:43;1.80;;;1.20;;
24335;SDS011;33098;52.400;16.880;2022-09-09T12:01:37;6.00;;;1.40;;
24335;SDS011;33098;52.400;16.880;2022-09-09T12:04:27;3.40;;;1.70;;
24335;SDS011;33098;52.400;16.880;2022-09-09T12:09:42;2.20;;;1.50;;
24335;SDS011;33098;52.400;16.880;2022-09-09T12:17:17;4.50;;;1.40;;
24335;SDS011;33098;52.400;16.880;2022-09-09T12:19:46;2.10;;;1.20;;
24335;SDS011;33098;52.400;16.880;2022-09-09T12:28:01;3.50;;;1.50;;
24335;SDS011;33098;52.400;16.880;2022-09-09T12:30:29;2.60;;;1.60;;
24335;SDS011;33098;52.400;16.880;2022-09-09T12:33:08;1.80;;;1.40;;
24335;SDS011;33098;52.400;16.880;2022-09-09T12:35:39;2.10;;;1.20;;
24335;SDS011;33098;52.400;16.880;2022-09-09T12:38:13;5.20;;;1.50;;
24335;SDS011;33098;52.400;16.880;2022-09-09T12:40:53;4.00;;;1.40;;
24335;SDS011;33098;52.400;16.880;2022-09-09T12:43:22;3.80;;;1.20;;
24335;SDS011;33098;52.400;16.880;2022-09-09T12:45:51;1.70;;;1.20;;
24335;SDS011;33098;52.400;16.880;2022-09-09T12:48:36;3.00;;;1.50;;
24335;SDS011;33098;52.400;16.880;2022-09-09T12:53:58;2.70;;;1.20;;
24335;SDS011;33098;52.400;16.880;2022-09-09T12:56:26;2.60;;;1.30;;
24335;SDS011;33098;52.400;16.880;2022-09-09T12:58:56;2.70;;;1.30;;
24335;SDS011;33098;52.400;16.880;2022-09-09T13:01:25;1.80;;;1.20;;
24335;SDS011;33098;52.400;16.880;2022-09-09T13:03:56;2.10;;;1.00;;
24335;SDS011;33098;52.400;16.880;2022-09-09T13:06:24;1.70;;;1.00;;
24335;SDS011;33098;52.400;16.880;2022-09-09T13:08:53;1.30;;;1.00;;
24335;SDS011;33098;52.400;16.880;2022-09-09T13:11:29;2.00;;;1.20;;
24335;SDS011;33098;52.400;16.880;2022-09-09T13:14:02;2.20;;;1.10;;
24335;SDS011;33098;52.400;16.880;2022-09-09T13:16:30;1.40;;;1.00;;
24335;SDS011;33098;52.400;16.880;2022-09-09T13:18:59;1.20;;;1.00;;
24335;SDS011;33098;52.400;16.880;2022-09-09T13:21:31;2.40;;;1.10;;
24335;SDS011;33098;52.400;16.880;2022-09-09T13:24:00;3.20;;;1.30;;
24335;SDS011;33098;52.400;16.880;2022-09-09T13:26:29;2.70;;;1.10;;
24335;SDS011;33098;52.400;16.880;2022-09-09T13:29:07;4.30;;;1.20;;
24335;SDS011;33098;52.400;16.880;2022-09-09T13:31:45;2.50;;;1.10;;
24335;SDS011;33098;52.400;16.880;2022-09-09T13:34:13;1.30;;;1.20;;
24335;SDS011;33098;52.400;16.880;2022-09-09T13:36:51;2.50;;;1.30;;
24335;SDS011;33098;52.400;16.880;2022-09-09T13:39:19;2.70;;;1.30;;
24335;SDS011;33098;52.400;16.880;2022-09-09T13:41:46;1.70;;;1.20;;
24335;SDS011;33098;52.400;16.880;2022-09-09T13:44:19;2.30;;;1.30;;
24335;SDS011;33098;52.400;16.880;2022-09-09T13:49:31;1.80;;;1.20;;
24335;SDS011;33098;52.400;16.880;2022-09-09T13:52:04;1.90;;;1.00;;
24335;SDS011;33098;52.400;16.880;2022-09-09T13:54:40;3.90;;;1.10;;
24335;SDS011;33098;52.400;16.880;2022-09-09T13:57:14;2.80;;;1.10;;
24335;SDS011;33098;52.400;16.880;2022-09-09T13:59:47;1.70;;;1.00;;
24335;SDS011;33098;52.400;16.880;2022-09-09T14:02:14;1.30;;;0.90;;
24335;SDS011;33098;52.400;16.880;2022-09-09T14:04:43;2.30;;;0.90;;
24335;SDS011;33098;52.400;16.880;2022-09-09T14:07:13;3.00;;;0.80;;
24335;SDS011;33098;52.400;16.880;2022-09-09T14:09:41;3.30;;;0.90;;
24335;SDS011;33098;52.400;16.880;2022-09-09T14:12:11;2.90;;;1.00;;
24335;SDS011;33098;52.400;16.880;2022-09-09T14:17:04;2.10;;;0.90;;
24335;SDS011;33098;52.400;16.880;2022-09-09T14:19:31;4.40;;;1.10;;
24335;SDS011;33098;52.400;16.880;2022-09-09T14:21:57;3.00;;;1.20;;
24335;SDS011;33098;52.400;16.880;2022-09-09T14:24:24;2.00;;;1.10;;
24335;SDS011;33098;52.400;16.880;2022-09-09T14:26:51;2.60;;;1.10;;
24335;SDS011;33098;52.400;16.880;2022-09-09T14:29:17;1.80;;;1.20;;
24335;SDS011;33098;52.400;16.880;2022-09-09T14:31:44;3.60;;;1.30;;
24335;SDS011;33098;52.400;16.880;2022-09-09T14:34:10;3.50;;;1.00;;
24335;SDS011;33098;52.400;16.880;2022-09-09T14:36:37;1.80;;;1.00;;
24335;SDS011;33098;52.400;16.880;2022-09-09T14:39:04;3.20;;;1.30;;
24335;SDS011;33098;52.400;16.880;2022-09-09T14:41:30;3.30;;;1.30;;
24335;SDS011;33098;52.400;16.880;2022-09-09T14:43:57;1.80;;;1.00;;
24335;SDS011;33098;52.400;16.880;2022-09-09T14:46:24;1.70;;;1.10;;
24335;SDS011;33098;52.400;16.880;2022-09-09T14:48:50;3.00;;;1.30;;
24335;SDS011;33098;52.400;16.880;2022-09-09T14:51:18;1.60;;;1.10;;
24335;SDS011;33098;52.400;16.880;2022-09-09T14:53:50;2.90;;;1.10;;
24335;SDS011;33098;52.400;16.880;2022-09-09T14:56:19;2.50;;;1.10;;
24335;SDS011;33098;52.400;16.880;2022-09-09T15:01:17;2.90;;;1.00;;
24335;SDS011;33098;52.400;16.880;2022-09-09T15:03:52;2.30;;;1.30;;
24335;SDS011;33098;52.400;16.880;2022-09-09T15:06:23;2.00;;;1.20;;
24335;SDS011;33098;52.400;16.880;2022-09-09T15:08:51;4.10;;;1.10;;
24335;SDS011;33098;52.400;16.880;2022-09-09T15:11:18;2.30;;;1.10;;
24335;SDS011;33098;52.400;16.880;2022-09-09T15:13:46;2.80;;;1.30;;
24335;SDS011;33098;52.400;16.880;2022-09-09T15:16:16;2.20;;;1.40;;
24335;SDS011;33098;52.400;16.880;2022-09-09T15:18:45;3.90;;;1.50;;
24335;SDS011;33098;52.400;16.880;2022-09-09T15:21:13;2.80;;;1.00;;
24335;SDS011;33098;52.400;16.880;2022-09-09T15:23:45;5.30;;;1.30;;
24335;SDS011;33098;52.400;16.880;2022-09-09T15:26:11;2.60;;;1.20;;
24335;SDS011;33098;52.400;16.880;2022-09-09T15:28:40;3.50;;;1.30;;
24335;SDS011;33098;52.400;16.880;2022-09-09T15:31:09;5.30;;;1.40;;
24335;SDS011;33098;52.400;16.880;2022-09-09T15:33:40;3.70;;;1.30;;
24335;SDS011;33098;52.400;16.880;2022-09-09T15:38:44;2.50;;;1.30;;
24335;SDS011;33098;52.400;16.880;2022-09-09T15:41:12;4.00;;;1.40;;
24335;SDS011;33098;52.400;16.880;2022-09-09T15:43:42;2.20;;;1.40;;
24335;SDS011;33098;52.400;16.880;2022-09-09T15:49:02;5.00;;;1.50;;
24335;SDS011;33098;52.400;16.880;2022-09-09T15:51:31;2.00;;;1.40;;
24335;SDS011;33098;52.400;16.880;2022-09-09T15:53:59;2.60;;;1.40;;
24335;SDS011;33098;52.400;16.880;2022-09-09T15:56:26;3.50;;;1.50;;
24335;SDS011;33098;52.400;16.880;2022-09-09T15:58:57;1.90;;;1.20;;
24335;SDS011;33098;52.400;16.880;2022-09-09T16:01:29;2.10;;;1.10;;
24335;SDS011;33098;52.400;16.880;2022-09-09T16:03:57;2.70;;;1.20;;
24335;SDS011;33098;52.400;16.880;2022-09-09T16:06:26;2.70;;;1.30;;
24335;SDS011;33098;52.400;16.880;2022-09-09T16:08:55;3.40;;;1.60;;
24335;SDS011;33098;52.400;16.880;2022-09-09T16:11:24;4.40;;;1.50;;
24335;SDS011;33098;52.400;16.880;2022-09-09T16:13:51;4.40;;;1.60;;
24335;SDS011;33098;52.400;16.880;2022-09-09T16:16:19;3.20;;;1.50;;
24335;SDS011;33098;52.400;16.880;2022-09-09T16:18:52;2.90;;;1.50;;
24335;SDS011;33098;52.400;16.880;2022-09-09T16:21:21;6.20;;;2.00;;
24335;SDS011;33098;52.400;16.880;2022-09-09T16:23:55;4.50;;;1.90;;
24335;SDS011;33098;52.400;16.880;2022-09-09T16:26:23;3.50;;;1.70;;
24335;SDS011;33098;52.400;16.880;2022-09-09T16:28:49;3.20;;;1.50;;
24335;SDS011;33098;52.400;16.880;2022-09-09T16:31:18;3.80;;;1.60;;
24335;SDS011;33098;52.400;16.880;2022-09-09T16:33:46;4.80;;;1.70;;
24335;SDS011;33098;52.400;16.880;2022-09-09T16:36:15;4.80;;;1.90;;
24335;SDS011;33098;52.400;16.880;2022-09-09T16:38:43;3.20;;;1.70;;
24335;SDS011;33098;52.400;16.880;2022-09-09T16:41:10;3.10;;;1.80;;
24335;SDS011;33098;52.400;16.880;2022-09-09T16:43:37;3.30;;;1.60;;
24335;SDS011;33098;52.400;16.880;2022-09-09T16:46:11;3.40;;;1.60;;
24335;SDS011;33098;52.400;16.880;2022-09-09T16:48:41;3.50;;;1.60;;
24335;SDS011;33098;52.400;16.880;2022-09-09T16:51:11;2.70;;;1.80;;
24335;SDS011;33098;52.400;16.880;2022-09-09T16:53:40;5.40;;;1.70;;
24335;SDS011;33098;52.400;16.880;2022-09-09T16:56:10;5.20;;;2.00;;
24335;SDS011;33098;52.400;16.880;2022-09-09T16:58:39;4.80;;;2.20;;
24335;SDS011;33098;52.400;16.880;2022-09-09T17:01:05;5.80;;;2.30;;
24335;SDS011;33098;52.400;16.880;2022-09-09T17:03:32;7.60;;;2.00;;
24335;SDS011;33098;52.400;16.880;2022-09-09T17:05:59;4.00;;;1.70;;
24335;SDS011;33098;52.400;16.880;2022-09-09T17:08:28;4.30;;;2.00;;